Time;durP1;ratioP1;P1;durP2;ratioP2;P2;SDS_P1;SDS_P2;PMS_P1;PMS_P2;Temp;Humidity;BMP_temperature;BMP_pressure;BME280_temperature;BME280_humidity;BME280_pressure;Samples;Min_cycle;Max_cycle;Signal;HPM_P1;HPM_P2
2021/07/26 00:00:08;;;;;;;7.05;6.35;;;17.70;99.90;;;;;;6156689;23;20183;-86
2021/07/26 00:02:35;;;;;;;8.15;6.45;;;17.70;99.90;;;;;;6157605;23;20171;-86
2021/07/26 00:05:04;;;;;;;8.43;6.43;;;17.70;99.90;;;;;;6156683;23;20596;-85
2021/07/26 00:07:31;;;;;;;6.90;6.05;;;17.80;99.90;;;;;;6157509;23;20179;-87
2021/07/26 00:09:58;;;;;;;7.53;6.90;;;17.70;99.90;;;;;;6156824;23;20226;-86
2021/07/26 00:12:25;;;;;;;8.70;6.30;;;17.60;99.90;;;;;;6155339;23;20210;-86
2021/07/26 00:14:53;;;;;;;7.72;6.38;;;17.70;99.90;;;;;;6156350;23;20254;-87
2021/07/26 00:17:20;;;;;;;6.57;5.88;;;17.70;99.90;;;;;;6155448;23;20213;-87
2021/07/26 00:19:47;;;;;;;6.55;5.85;;;17.60;99.90;;;;;;6155379;23;20207;-87
2021/07/26 00:22:14;;;;;;;8.18;6.18;;;17.60;99.90;;;;;;6153080;23;20207;-86
2021/07/26 00:24:41;;;;;;;7.00;6.40;;;17.50;99.90;;;;;;6157256;23;20222;-86
2021/07/26 00:27:08;;;;;;;8.77;6.47;;;17.50;99.90;;;;;;6158047;23;20243;-85
2021/07/26 00:29:35;;;;;;;8.57;6.28;;;17.50;99.90;;;;;;6157839;23;20178;-86
2021/07/26 00:32:03;;;;;;;6.88;6.20;;;17.60;99.90;;;;;;6158038;23;20294;-86
2021/07/26 00:34:30;;;;;;;8.30;6.10;;;17.60;99.90;;;;;;6157939;23;20182;-86
2021/07/26 00:36:58;;;;;;;7.38;6.60;;;17.70;99.90;;;;;;6157559;23;20207;-86
2021/07/26 00:39:26;;;;;;;6.93;6.15;;;17.70;99.90;;;;;;6157120;23;20191;-86
2021/07/26 00:41:54;;;;;;;7.25;6.55;;;17.70;99.90;;;;;;6157811;23;20234;-87
2021/07/26 00:44:22;;;;;;;7.68;6.28;;;17.60;99.90;;;;;;6157312;23;20250;-86
2021/07/26 00:46:50;;;;;;;7.25;5.93;;;17.60;99.90;;;;;;6158432;23;20285;-87
2021/07/26 00:49:20;;;;;;;7.63;5.82;;;17.60;99.90;;;;;;6156615;23;20223;-86
2021/07/26 00:51:48;;;;;;;6.85;6.05;;;17.60;99.90;;;;;;6156867;23;20234;-87
2021/07/26 00:54:18;;;;;;;6.90;6.20;;;17.60;99.90;;;;;;6157454;23;20254;-86
2021/07/26 00:56:46;;;;;;;7.22;6.10;;;17.60;99.90;;;;;;6153672;23;20214;-86
2021/07/26 00:59:15;;;;;;;7.05;6.15;;;17.80;99.90;;;;;;6156466;23;20572;-86
2021/07/26 01:01:43;;;;;;;7.07;6.13;;;17.90;99.90;;;;;;6156170;23;20677;-85
2021/07/26 01:04:10;;;;;;;6.80;6.20;;;17.90;99.90;;;;;;6156777;23;20515;-87
2021/07/26 01:06:39;;;;;;;7.53;6.75;;;17.90;99.90;;;;;;6156734;23;20565;-86
2021/07/26 01:09:07;;;;;;;7.60;6.38;;;17.80;99.90;;;;;;6155365;23;20207;-85
2021/07/26 01:11:34;;;;;;;6.65;5.95;;;17.80;99.90;;;;;;6156820;23;20324;-86
2021/07/26 01:14:01;;;;;;;7.68;6.28;;;17.80;99.90;;;;;;6156772;23;20203;-86
2021/07/26 01:16:29;;;;;;;6.80;6.10;;;17.80;99.90;;;;;;6157319;23;20203;-86
2021/07/26 01:18:56;;;;;;;6.57;5.93;;;17.90;99.90;;;;;;6157563;23;20190;-86
2021/07/26 01:21:24;;;;;;;7.28;6.03;;;17.90;99.90;;;;;;6158362;23;20295;-86
2021/07/26 01:23:52;;;;;;;6.63;6.00;;;17.80;99.90;;;;;;6157778;23;20211;-86
2021/07/26 01:26:20;;;;;;;9.75;5.93;;;17.80;99.90;;;;;;6157705;23;20277;-86
2021/07/26 01:28:49;;;;;;;6.95;6.22;;;17.80;99.90;;;;;;6157249;23;20206;-86
2021/07/26 01:31:17;;;;;;;6.95;5.95;;;17.90;99.90;;;;;;6156885;23;20279;-86
2021/07/26 01:33:45;;;;;;;7.10;6.40;;;17.80;99.90;;;;;;6156150;23;20171;-86
2021/07/26 01:36:14;;;;;;;6.60;6.00;;;17.80;99.90;;;;;;6155979;23;20277;-86
2021/07/26 01:38:45;;;;;;;8.07;5.88;;;17.80;99.90;;;;;;6157116;23;20171;-86
2021/07/26 01:41:17;;;;;;;6.28;5.68;;;17.90;99.90;;;;;;6157713;23;20538;-86
2021/07/26 01:44:01;;;;;;;6.75;5.97;;;17.80;99.90;;;;;;6159150;23;20171;-86
2021/07/26 01:46:35;;;;;;;6.35;5.75;;;17.80;99.90;;;;;;6158680;23;20265;-86
2021/07/26 01:49:09;;;;;;;7.03;5.93;;;17.70;99.90;;;;;;6158150;23;20214;-86
2021/07/26 01:51:39;;;;;;;6.03;5.53;;;17.70;99.90;;;;;;6156617;23;20215;-85
2021/07/26 01:54:08;;;;;;;6.88;5.53;;;17.80;99.90;;;;;;6157155;23;20502;-86
2021/07/26 01:56:35;;;;;;;6.60;5.57;;;17.70;99.90;;;;;;6157643;23;20210;-85
2021/07/26 01:59:03;;;;;;;7.80;5.85;;;17.70;99.90;;;;;;6157642;23;20175;-85
2021/07/26 02:01:30;;;;;;;8.75;5.40;;;17.60;99.90;;;;;;6156893;23;20690;-86
2021/07/26 02:03:57;;;;;;;6.45;5.50;;;17.50;99.90;;;;;;6158035;23;20250;-86
2021/07/26 02:06:24;;;;;;;6.03;5.07;;;17.50;99.90;;;;;;6131123;23;20685;-87
2021/07/26 02:08:51;;;;;;;9.52;5.25;;;17.50;99.90;;;;;;6158687;23;20235;-86
2021/07/26 02:11:22;;;;;;;8.70;5.20;;;17.50;99.90;;;;;;6156921;23;20199;-86
2021/07/26 02:13:49;;;;;;;6.85;5.07;;;17.40;99.90;;;;;;6156194;23;20227;-86
2021/07/26 02:16:16;;;;;;;5.57;5.07;;;17.30;99.90;;;;;;6157843;23;20285;-85
2021/07/26 02:18:43;;;;;;;9.25;5.57;;;17.30;99.90;;;;;;6157396;23;20206;-86
2021/07/26 02:21:13;;;;;;;11.05;5.35;;;17.30;99.90;;;;;;6157627;23;20280;-86
2021/07/26 02:23:39;;;;;;;6.47;4.78;;;17.40;99.90;;;;;;6159726;23;20592;-87
2021/07/26 02:26:07;;;;;;;9.95;5.35;;;17.30;99.90;;;;;;6158142;23;20255;-86
2021/07/26 02:28:35;;;;;;;8.18;5.35;;;17.40;99.90;;;;;;6159246;23;20175;-86
2021/07/26 02:31:02;;;;;;;6.07;5.00;;;17.40;99.90;;;;;;6159423;23;20209;-87
2021/07/26 02:33:29;;;;;;;5.45;4.95;;;17.50;99.90;;;;;;6159835;23;20229;-87
2021/07/26 02:35:56;;;;;;;5.72;5.07;;;17.50;99.90;;;;;;6158278;23;20254;-86
2021/07/26 02:38:23;;;;;;;10.13;5.05;;;17.60;99.90;;;;;;6158735;23;20786;-86
2021/07/26 02:40:50;;;;;;;6.32;4.90;;;17.60;99.90;;;;;;6158698;23;20199;-88
2021/07/26 02:43:17;;;;;;;6.30;5.10;;;17.50;99.90;;;;;;6160017;23;20237;-86
2021/07/26 02:45:47;;;;;;;6.28;5.43;;;17.40;99.90;;;;;;6158603;23;20230;-86
2021/07/26 02:48:14;;;;;;;8.45;5.25;;;17.40;99.90;;;;;;6160026;23;20195;-86
2021/07/26 02:50:41;;;;;;;11.30;5.75;;;17.30;99.90;;;;;;6158046;23;20231;-86
2021/07/26 02:53:08;;;;;;;6.60;5.18;;;17.30;99.90;;;;;;6158744;23;20254;-87
2021/07/26 02:55:35;;;;;;;8.68;5.00;;;17.30;99.90;;;;;;6158135;23;20286;-86
2021/07/26 02:58:02;;;;;;;6.30;5.20;;;17.30;99.90;;;;;;6158194;23;20240;-86
2021/07/26 03:00:29;;;;;;;9.68;5.18;;;17.30;99.90;;;;;;6157647;23;20203;-86
2021/07/26 03:02:58;;;;;;;5.50;5.00;;;17.30;99.90;;;;;;6159101;23;20262;-86
2021/07/26 03:05:27;;;;;;;5.32;4.82;;;17.30;99.90;;;;;;6158443;23;20754;-86
2021/07/26 03:07:53;;;;;;;6.70;5.10;;;17.30;99.90;;;;;;6159253;23;20694;-86
2021/07/26 03:10:20;;;;;;;9.57;5.65;;;17.30;99.90;;;;;;6158117;23;20186;-86
2021/07/26 03:12:48;;;;;;;6.50;5.85;;;17.30;99.90;;;;;;6159263;23;20211;-86
2021/07/26 03:15:14;;;;;;;9.18;6.80;;;17.30;99.90;;;;;;6159477;23;20183;-85
2021/07/26 03:17:41;;;;;;;7.20;6.50;;;17.30;99.90;;;;;;6158732;23;20207;-85
2021/07/26 03:20:11;;;;;;;10.23;6.63;;;17.20;99.90;;;;;;6157933;23;20194;-86
2021/07/26 03:23:00;;;;;;;8.80;6.18;;;17.30;99.90;;;;;;6157874;23;20214;-86
2021/07/26 03:25:29;;;;;;;9.20;5.45;;;17.20;99.90;;;;;;6158342;23;20215;-85
2021/07/26 03:27:56;;;;;;;9.02;5.60;;;17.20;99.90;;;;;;6159334;23;20294;-86
2021/07/26 03:30:23;;;;;;;8.90;5.28;;;17.30;99.90;;;;;;6159009;23;20505;-87
2021/07/26 03:32:51;;;;;;;5.95;4.85;;;17.30;99.90;;;;;;6159052;23;20179;-87
2021/07/26 03:35:20;;;;;;;7.63;5.20;;;17.30;99.90;;;;;;6158950;23;20172;-85
2021/07/26 03:37:48;;;;;;;5.05;4.55;;;17.40;99.90;;;;;;6158847;23;20203;-87
2021/07/26 03:40:15;;;;;;;6.80;4.43;;;17.40;99.90;;;;;;6157735;23;20198;-86
2021/07/26 03:42:43;;;;;;;4.57;4.18;;;17.40;99.90;;;;;;6156954;23;20176;-87
2021/07/26 03:45:12;;;;;;;4.63;4.22;;;17.40;99.90;;;;;;6157237;23;20175;-86
2021/07/26 03:47:39;;;;;;;6.88;4.70;;;17.40;99.90;;;;;;6157730;23;20247;-86
2021/07/26 03:50:08;;;;;;;5.97;4.25;;;17.40;99.90;;;;;;6158558;23;20179;-86
2021/07/26 03:52:50;;;;;;;6.50;4.78;;;17.50;99.90;;;;;;6157904;23;20258;-87
2021/07/26 03:55:20;;;;;;;5.20;4.70;;;17.60;99.90;;;;;;6157796;23;20205;-86
2021/07/26 03:57:47;;;;;;;4.80;4.40;;;17.60;99.90;;;;;;6158448;23;20210;-86
2021/07/26 04:00:16;;;;;;;5.50;4.05;;;17.60;99.90;;;;;;6158688;23;20175;-86
2021/07/26 04:02:44;;;;;;;6.07;4.68;;;17.50;99.90;;;;;;6158079;23;20179;-86
2021/07/26 04:05:19;;;;;;;6.05;4.60;;;17.70;99.90;;;;;;6158789;23;20312;-86
2021/07/26 04:07:49;;;;;;;5.88;4.28;;;17.70;99.90;;;;;;6159267;23;20174;-85
2021/07/26 04:10:16;;;;;;;5.53;4.50;;;17.70;99.90;;;;;;6157721;23;20215;-86
2021/07/26 04:12:48;;;;;;;5.25;4.43;;;17.70;99.90;;;;;;6160006;23;20175;-87
2021/07/26 04:15:21;;;;;;;6.03;4.40;;;17.70;99.80;;;;;;6157779;23;20710;-86
2021/07/26 04:17:48;;;;;;;4.88;4.38;;;17.80;99.80;;;;;;6160940;23;20271;-86
2021/07/26 04:20:14;;;;;;;6.43;4.53;;;17.90;99.80;;;;;;6159228;23;20255;-86
2021/07/26 04:22:41;;;;;;;4.50;4.10;;;17.80;99.60;;;;;;6160353;23;20190;-86
2021/07/26 04:25:10;;;;;;;5.03;4.53;;;17.80;99.90;;;;;;6160819;23;20211;-86
2021/07/26 04:27:37;;;;;;;4.70;4.30;;;17.70;99.90;;;;;;6160384;23;20262;-86
2021/07/26 04:30:05;;;;;;;4.70;4.25;;;17.80;99.90;;;;;;6158597;23;20214;-87
2021/07/26 04:32:41;;;;;;;4.35;3.88;;;17.90;99.90;;;;;;6162870;23;20198;-87
2021/07/26 04:35:09;;;;;;;4.75;3.92;;;17.90;99.70;;;;;;6163741;23;20186;-85
2021/07/26 04:37:36;;;;;;;6.85;5.38;;;18.00;99.80;;;;;;6161896;23;20199;-86
2021/07/26 04:40:04;;;;;;;5.43;4.53;;;18.00;99.60;;;;;;6162238;23;20217;-85
2021/07/26 04:42:32;;;;;;;5.72;4.30;;;18.20;99.20;;;;;;6162769;23;20262;-86
2021/07/26 04:44:59;;;;;;;5.25;4.75;;;18.30;98.90;;;;;;6162590;23;20206;-86
2021/07/26 04:47:26;;;;;;;4.63;4.10;;;18.30;98.60;;;;;;6160950;23;20218;-86
2021/07/26 04:49:53;;;;;;;5.40;4.50;;;18.40;98.20;;;;;;6155791;23;20177;-87
2021/07/26 04:52:20;;;;;;;6.60;4.60;;;18.30;98.10;;;;;;6155205;23;20679;-85
2021/07/26 04:54:47;;;;;;;5.18;4.25;;;18.30;98.50;;;;;;6156298;23;20269;-87
2021/07/26 04:57:14;;;;;;;5.63;4.03;;;18.30;98.60;;;;;;6156221;23;20289;-87
2021/07/26 04:59:42;;;;;;;6.15;4.40;;;18.30;98.70;;;;;;6155479;23;20199;-87
2021/07/26 05:02:09;;;;;;;6.65;4.57;;;18.30;98.70;;;;;;6156242;23;20199;-86
2021/07/26 05:04:36;;;;;;;7.20;4.40;;;18.30;98.70;;;;;;6157243;23;20246;-86
2021/07/26 05:07:03;;;;;;;4.78;4.13;;;18.40;98.70;;;;;;6154965;23;20209;-86
2021/07/26 05:09:31;;;;;;;5.28;4.78;;;18.40;98.30;;;;;;6154711;23;20203;-88
2021/07/26 05:12:01;;;;;;;5.85;4.75;;;18.40;98.40;;;;;;6154605;23;20278;-86
2021/07/26 05:14:28;;;;;;;6.35;5.05;;;18.30;98.40;;;;;;6156562;23;20215;-87
2021/07/26 05:16:58;;;;;;;5.03;4.53;;;18.30;98.40;;;;;;6156872;23;20223;-86
2021/07/26 05:19:25;;;;;;;6.20;4.40;;;18.40;98.50;;;;;;6155853;23;20712;-87
2021/07/26 05:21:52;;;;;;;8.10;4.50;;;18.40;97.90;;;;;;6156544;23;20230;-88
2021/07/26 05:24:19;;;;;;;6.40;4.85;;;18.50;98.10;;;;;;6156101;23;20607;-87
2021/07/26 05:26:46;;;;;;;5.70;4.65;;;18.60;98.00;;;;;;6154812;23;20617;-88
2021/07/26 05:29:13;;;;;;;4.97;4.57;;;18.60;97.80;;;;;;6155437;23;20210;-86
2021/07/26 05:31:42;;;;;;;7.00;4.40;;;18.70;97.80;;;;;;6155419;23;20290;-85
2021/07/26 05:34:10;;;;;;;6.50;4.45;;;18.80;97.80;;;;;;6155134;23;20175;-86
2021/07/26 05:36:37;;;;;;;5.03;4.00;;;19.00;97.80;;;;;;6153722;23;20207;-86
2021/07/26 05:39:10;;;;;;;10.88;5.00;;;19.00;97.40;;;;;;6154879;23;20227;-85
2021/07/26 05:41:37;;;;;;;6.18;4.70;;;19.00;96.70;;;;;;6154641;23;20255;-85
2021/07/26 05:44:03;;;;;;;5.60;4.50;;;19.10;96.60;;;;;;6155312;23;20214;-86
2021/07/26 05:46:30;;;;;;;6.43;4.47;;;19.10;96.20;;;;;;6154953;23;20222;-85
2021/07/26 05:48:57;;;;;;;5.57;4.25;;;19.20;95.60;;;;;;6156237;23;20607;-86
2021/07/26 05:51:25;;;;;;;4.90;4.03;;;19.30;95.50;;;;;;6155270;23;20578;-85
2021/07/26 05:53:52;;;;;;;5.22;4.20;;;19.30;95.20;;;;;;6156875;23;20222;-86
2021/07/26 05:56:19;;;;;;;6.38;3.92;;;19.40;94.80;;;;;;6155051;23;20234;-91
2021/07/26 05:58:48;;;;;;;7.57;4.40;;;19.40;94.50;;;;;;6156022;23;20203;-85
2021/07/26 06:01:36;;;;;;;5.07;4.15;;;19.40;94.20;;;;;;6155402;23;20213;-88
2021/07/26 06:04:03;;;;;;;5.43;4.10;;;19.50;94.20;;;;;;6155909;23;20187;-85
2021/07/26 06:06:32;;;;;;;5.13;4.30;;;19.50;93.90;;;;;;6153386;23;20667;-87
2021/07/26 06:08:58;;;;;;;6.93;3.90;;;19.50;94.00;;;;;;6155861;23;20265;-86
2021/07/26 06:11:25;;;;;;;4.32;3.80;;;19.60;93.80;;;;;;6155195;23;20222;-86
2021/07/26 06:13:53;;;;;;;5.47;3.97;;;19.60;93.90;;;;;;6155740;23;20175;-86
2021/07/26 06:16:20;;;;;;;6.50;4.00;;;19.60;93.70;;;;;;6155655;23;20233;-86
2021/07/26 06:18:46;;;;;;;5.45;4.40;;;19.60;94.10;;;;;;6155919;23;20281;-87
2021/07/26 06:21:13;;;;;;;5.55;3.80;;;19.60;93.40;;;;;;6153281;23;20207;-86
2021/07/26 06:23:41;;;;;;;4.45;4.05;;;19.70;93.70;;;;;;6156559;23;20179;-87
2021/07/26 06:26:09;;;;;;;9.32;3.97;;;19.80;92.90;;;;;;6156857;23;20218;-87
2021/07/26 06:28:36;;;;;;;7.03;4.20;;;19.80;92.60;;;;;;6157319;23;20183;-86
2021/07/26 06:31:03;;;;;;;4.20;3.80;;;19.90;92.20;;;;;;6156229;23;20230;-89
2021/07/26 06:33:30;;;;;;;4.28;3.88;;;20.00;92.10;;;;;;6161354;23;20210;-83
2021/07/26 06:35:57;;;;;;;5.07;3.90;;;20.20;91.70;;;;;;6160595;23;20670;-85
2021/07/26 06:38:24;;;;;;;4.43;3.97;;;20.40;91.50;;;;;;6160750;23;20258;-89
2021/07/26 06:40:52;;;;;;;4.35;3.95;;;20.50;91.30;;;;;;6156551;23;20285;-88
2021/07/26 06:43:19;;;;;;;4.30;3.85;;;20.60;90.70;;;;;;6157760;23;20475;-87
2021/07/26 06:45:46;;;;;;;6.07;3.85;;;20.60;90.50;;;;;;6153243;23;20218;-87
2021/07/26 06:48:12;;;;;;;5.70;4.47;;;20.70;90.60;;;;;;6155001;23;20276;-85
2021/07/26 06:50:40;;;;;;;6.15;4.28;;;20.50;90.50;;;;;;6154865;23;20526;-86
2021/07/26 06:53:07;;;;;;;5.60;4.18;;;20.50;90.90;;;;;;6155469;23;20179;-87
2021/07/26 06:55:37;;;;;;;5.65;4.10;;;20.50;91.00;;;;;;6155069;23;20195;-86
2021/07/26 06:58:06;;;;;;;8.30;4.00;;;20.60;90.80;;;;;;6154821;23;20207;-87
2021/07/26 07:00:34;;;;;;;4.38;3.85;;;20.60;90.90;;;;;;6152043;23;20199;-86
2021/07/26 07:03:01;;;;;;;4.82;4.07;;;20.80;90.40;;;;;;6153576;23;20557;-87
2021/07/26 07:05:28;;;;;;;6.07;4.00;;;21.00;89.80;;;;;;6156062;23;20199;-87
2021/07/26 07:07:54;;;;;;;8.48;3.92;;;21.20;90.00;;;;;;6157445;23;20258;-85
2021/07/26 07:10:21;;;;;;;7.78;4.30;;;21.10;88.20;;;;;;6159068;23;20187;-85
2021/07/26 07:12:51;;;;;;;8.15;4.40;;;20.80;89.10;;;;;;6162004;23;20179;-87
2021/07/26 07:15:22;;;;;;;6.50;4.38;;;20.80;89.50;;;;;;6163105;23;20183;-85
2021/07/26 07:17:49;;;;;;;6.97;4.25;;;20.70;90.70;;;;;;6160010;23;20543;-86
2021/07/26 07:20:17;;;;;;;4.47;3.90;;;21.00;90.30;;;;;;6157750;23;20500;-85
2021/07/26 07:22:44;;;;;;;4.50;4.00;;;21.30;90.10;;;;;;6158496;23;20547;-85
2021/07/26 07:25:12;;;;;;;4.55;4.05;;;21.30;89.50;;;;;;6157096;23;20179;-85
2021/07/26 07:27:39;;;;;;;8.55;4.35;;;21.40;89.00;;;;;;6158822;23;20178;-87
2021/07/26 07:30:07;;;;;;;5.03;3.97;;;21.50;87.90;;;;;;6157849;23;20179;-87
2021/07/26 07:32:37;;;;;;;5.97;4.20;;;21.50;86.00;;;;;;6158823;23;20191;-85
2021/07/26 07:35:07;;;;;;;5.75;4.43;;;21.60;88.40;;;;;;6158638;23;20606;-85
2021/07/26 07:37:36;;;;;;;4.97;4.07;;;21.70;89.50;;;;;;6158253;23;20255;-86
2021/07/26 07:40:03;;;;;;;4.15;3.75;;;22.00;89.30;;;;;;6158947;23;20199;-85
2021/07/26 07:42:32;;;;;;;5.78;3.97;;;22.30;87.20;;;;;;6159078;23;20224;-83
2021/07/26 07:44:58;;;;;;;7.32;4.10;;;22.50;84.80;;;;;;6161157;23;20179;-84
2021/07/26 07:47:25;;;;;;;4.82;4.07;;;22.80;82.80;;;;;;6161235;23;20568;-84
2021/07/26 07:49:54;;;;;;;4.45;4.00;;;22.90;81.80;;;;;;6161331;23;20191;-83
2021/07/26 07:52:21;;;;;;;4.50;3.88;;;22.90;76.80;;;;;;6160935;23;20211;-83
2021/07/26 07:54:48;;;;;;;8.13;4.45;;;23.00;74.10;;;;;;6161257;23;20255;-84
2021/07/26 07:57:16;;;;;;;7.07;4.07;;;23.00;75.50;;;;;;6160400;23;20218;-83
2021/07/26 07:59:44;;;;;;;6.18;3.78;;;22.90;72.50;;;;;;6160137;23;20286;-83
2021/07/26 08:02:12;;;;;;;4.85;4.35;;;22.80;74.10;;;;;;6159192;23;20651;-86
2021/07/26 08:04:40;;;;;;;5.25;4.10;;;22.70;72.90;;;;;;6160269;23;20182;-83
2021/07/26 08:07:09;;;;;;;8.80;4.35;;;22.70;72.90;;;;;;6158706;23;20215;-84
2021/07/26 08:09:36;;;;;;;7.43;4.30;;;22.60;70.90;;;;;;6158801;23;20266;-84
2021/07/26 08:12:03;;;;;;;3.92;3.63;;;22.70;70.00;;;;;;6157573;23;20259;-83
2021/07/26 08:14:29;;;;;;;4.95;4.05;;;22.90;71.50;;;;;;6158221;23;20171;-84
2021/07/26 08:17:01;;;;;;;5.13;4.13;;;23.10;72.10;;;;;;6156005;23;20277;-84
2021/07/26 08:19:28;;;;;;;7.07;3.92;;;23.40;68.20;;;;;;6155310;23;20187;-84
2021/07/26 08:21:55;;;;;;;5.03;4.32;;;23.70;70.60;;;;;;6153792;23;20710;-86
2021/07/26 08:24:23;;;;;;;5.97;4.05;;;23.90;64.40;;;;;;6155464;23;20470;-84
2021/07/26 08:26:50;;;;;;;5.90;4.57;;;23.40;63.40;;;;;;6154405;23;20662;-85
2021/07/26 08:29:17;;;;;;;5.47;4.45;;;23.30;65.20;;;;;;6155268;23;20679;-83
2021/07/26 08:31:44;;;;;;;4.95;4.50;;;23.40;62.30;;;;;;6158637;23;20235;-86
2021/07/26 08:34:11;;;;;;;5.40;3.80;;;23.30;62.10;;;;;;6158581;23;20178;-83
2021/07/26 08:36:38;;;;;;;5.53;4.47;;;23.60;63.50;;;;;;6156920;23;20278;-85
2021/07/26 08:39:05;;;;;;;6.13;4.65;;;23.70;60.30;;;;;;6157156;23;20235;-82
2021/07/26 08:41:33;;;;;;;6.40;4.40;;;23.70;60.90;;;;;;6160289;23;20787;-81
2021/07/26 08:44:01;;;;;;;5.57;4.50;;;24.00;56.80;;;;;;6161016;23;20179;-83
2021/07/26 08:46:32;;;;;;;5.63;4.13;;;24.00;57.60;;;;;;6155902;23;20282;-80
2021/07/26 08:49:01;;;;;;;5.13;4.63;;;24.90;55.00;;;;;;6157809;23;20199;-81
2021/07/26 08:51:30;;;;;;;6.32;4.65;;;26.00;49.00;;;;;;6156985;23;20274;-82
2021/07/26 08:54:00;;;;;;;5.68;4.60;;;27.30;43.50;;;;;;6155318;23;20257;-84
2021/07/26 08:56:27;;;;;;;5.85;4.85;;;28.00;38.10;;;;;;6153759;23;20588;-84
2021/07/26 08:58:55;;;;;;;4.55;4.15;;;27.80;38.00;;;;;;6153402;23;20205;-83
2021/07/26 09:01:23;;;;;;;6.05;4.28;;;28.30;38.30;;;;;;6153805;23;20237;-83
2021/07/26 09:03:52;;;;;;;6.75;4.68;;;29.10;35.30;;;;;;6155447;23;20249;-84
2021/07/26 09:06:20;;;;;;;5.25;4.75;;;29.60;31.60;;;;;;6158355;23;20655;-84
2021/07/26 09:08:47;;;;;;;5.35;4.65;;;29.90;30.90;;;;;;6157192;23;20281;-84
2021/07/26 09:11:14;;;;;;;6.53;4.60;;;29.80;32.70;;;;;;6158129;23;20277;-83
2021/07/26 09:13:45;;;;;;;8.98;8.00;;;29.40;34.10;;;;;;6158930;23;20254;-83
2021/07/26 09:16:21;;;;;;;8.07;4.38;;;29.20;33.20;;;;;;6155985;23;20229;-84
2021/07/26 09:19:00;;;;;;;6.22;5.20;;;29.40;32.70;;;;;;6151374;23;20201;-85
2021/07/26 09:21:49;;;;;;;5.85;5.05;;;29.70;31.80;;;;;;6152055;23;20210;-84
2021/07/26 09:24:23;;;;;;;7.50;5.00;;;28.20;34.60;;;;;;6153745;23;20186;-85
2021/07/26 09:26:53;;;;;;;5.28;4.30;;;26.80;37.40;;;;;;6153133;23;20201;-85
2021/07/26 09:29:27;;;;;;;5.95;4.90;;;26.20;41.20;;;;;;6155184;23;20179;-83
2021/07/26 09:32:00;;;;;;;5.85;4.85;;;25.90;40.50;;;;;;6155291;23;20228;-83
2021/07/26 09:34:27;;;;;;;5.63;5.05;;;26.00;43.20;;;;;;6160387;23;20189;-82
2021/07/26 09:36:54;;;;;;;6.47;4.85;;;26.10;43.20;;;;;;6158672;23;20209;-86
2021/07/26 09:39:27;;;;;;;4.43;4.03;;;26.30;44.70;;;;;;6153363;23;20567;-84
2021/07/26 09:41:55;;;;;;;6.50;4.50;;;26.90;42.30;;;;;;6153036;23;20202;-83
2021/07/26 09:44:24;;;;;;;4.50;4.10;;;28.40;38.40;;;;;;6153592;23;20477;-83
2021/07/26 09:46:51;;;;;;;5.40;4.90;;;28.90;36.10;;;;;;6152896;23;20483;-87
2021/07/26 09:49:21;;;;;;;6.97;4.60;;;29.10;36.40;;;;;;6152747;23;20207;-83
2021/07/26 09:52:04;;;;;;;7.75;5.28;;;30.70;29.30;;;;;;6157233;23;20209;-85
2021/07/26 09:54:41;;;;;;;6.13;4.82;;;31.90;27.50;;;;;;6160272;23;20182;-84
2021/07/26 09:57:19;;;;;;;7.50;5.32;;;32.70;23.10;;;;;;6164980;23;20202;-89
2021/07/26 09:59:46;;;;;;;6.63;4.90;;;31.50;25.40;;;;;;6152344;23;20189;-84
2021/07/26 10:02:15;;;;;;;5.38;4.82;;;31.20;27.00;;;;;;6152034;23;20207;-85
2021/07/26 10:04:45;;;;;;;5.55;5.00;;;31.20;26.60;;;;;;6153298;23;20175;-83
2021/07/26 10:07:13;;;;;;;5.90;4.75;;;31.60;25.10;;;;;;6152977;23;20289;-84
2021/07/26 10:09:42;;;;;;;5.50;5.00;;;31.30;26.20;;;;;;6154782;23;20229;-85
2021/07/26 10:12:11;;;;;;;6.70;5.38;;;32.30;22.30;;;;;;6154326;23;20234;-85
2021/07/26 10:14:39;;;;;;;7.95;5.82;;;32.20;22.00;;;;;;6157816;23;20257;-85
2021/07/26 10:17:07;;;;;;;5.35;4.85;;;31.90;22.10;;;;;;6159322;23;20270;-83
2021/07/26 10:19:34;;;;;;;8.18;5.60;;;31.90;23.90;;;;;;6162204;23;20198;-87
2021/07/26 10:22:04;;;;;;;5.70;5.20;;;32.40;22.10;;;;;;6161100;23;20209;-83
2021/07/26 10:24:38;;;;;;;5.60;5.10;;;32.40;23.10;;;;;;6162720;23;20219;-83
2021/07/26 10:27:12;;;;;;;5.97;5.47;;;34.80;20.00;;;;;;6162537;23;20277;-85
2021/07/26 10:29:52;;;;;;;6.97;6.28;;;35.40;19.30;;;;;;6163169;23;20206;-86
2021/07/26 10:32:43;;;;;;;6.28;5.68;;;36.60;17.00;;;;;;6162347;23;20202;-84
2021/07/26 10:35:50;;;;;;;6.28;5.75;;;37.50;15.40;;;;;;6132247;23;20217;-84
2021/07/26 10:39:04;;;;;;;6.60;6.00;;;37.80;15.60;;;;;;6163791;23;20186;-83
2021/07/26 10:42:04;;;;;;;6.93;6.25;;;38.40;15.60;;;;;;6155595;23;20282;-84
2021/07/26 10:44:47;;;;;;;7.10;6.50;;;37.20;15.30;;;;;;6166116;23;20700;-84
2021/07/26 10:47:18;;;;;;;6.82;6.22;;;37.30;15.40;;;;;;6164500;23;20210;-83
2021/07/26 10:50:16;;;;;;;6.20;5.50;;;36.40;14.90;;;;;;6162824;23;20163;-84
2021/07/26 10:52:44;;;;;;;7.05;5.55;;;34.80;19.00;;;;;;6158817;23;20186;-83
2021/07/26 10:55:11;;;;;;;6.40;5.13;;;33.40;19.80;;;;;;6155922;23;20522;-85
2021/07/26 10:57:44;;;;;;;8.02;5.25;;;31.90;22.20;;;;;;6156064;23;20206;-83
2021/07/26 11:00:19;;;;;;;5.50;5.00;;;30.50;24.50;;;;;;6154871;23;20764;-86
2021/07/26 11:02:47;;;;;;;5.32;4.82;;;30.10;28.10;;;;;;6156232;23;20179;-84
2021/07/26 11:05:33;;;;;;;7.60;5.63;;;29.60;27.70;;;;;;6157243;23;20469;-83
2021/07/26 11:08:28;;;;;;;5.25;4.85;;;28.90;28.40;;;;;;6159858;23;20242;-82
2021/07/26 11:10:58;;;;;;;4.95;4.55;;;28.50;30.30;;;;;;6159056;23;20207;-83
2021/07/26 11:14:01;;;;;;;5.53;4.78;;;28.40;32.90;;;;;;6160606;23;20229;-82
2021/07/26 11:17:00;;;;;;;5.45;4.75;;;28.00;34.80;;;;;;6143508;23;20265;-84
2021/07/26 11:19:38;;;;;;;5.30;4.57;;;27.70;34.70;;;;;;6164049;23;20183;-82
2021/07/26 11:22:27;;;;;;;4.85;4.45;;;27.40;36.80;;;;;;6162188;23;20225;-84
2021/07/26 11:24:55;;;;;;;4.93;4.53;;;27.30;36.40;;;;;;6163337;23;20175;-82
2021/07/26 11:27:42;;;;;;;8.05;4.20;;;27.20;37.70;;;;;;6159131;23;20214;-83
2021/07/26 11:30:15;;;;;;;4.72;4.32;;;27.10;37.50;;;;;;6156772;23;20171;-84
2021/07/26 11:32:53;;;;;;;4.70;4.25;;;26.80;37.40;;;;;;6157733;23;20167;-85
2021/07/26 11:35:20;;;;;;;4.88;4.38;;;26.40;37.10;;;;;;6156876;23;20162;-83
2021/07/26 11:37:47;;;;;;;6.80;4.82;;;26.60;37.20;;;;;;6157692;23;20178;-83
2021/07/26 11:40:15;;;;;;;8.95;4.80;;;27.00;37.50;;;;;;6157438;23;20310;-84
2021/07/26 11:42:45;;;;;;;6.03;4.60;;;27.30;34.70;;;;;;6158355;23;20202;-82
2021/07/26 11:45:17;;;;;;;5.07;4.68;;;27.50;37.80;;;;;;6157113;23;20179;-83
2021/07/26 11:47:45;;;;;;;4.93;4.53;;;27.70;33.40;;;;;;6157434;23;20194;-84
2021/07/26 11:50:14;;;;;;;6.25;4.97;;;27.80;34.60;;;;;;6155791;23;20213;-83
2021/07/26 11:52:53;;;;;;;8.85;6.22;;;27.70;33.80;;;;;;6157078;23;20178;-83
2021/07/26 11:55:21;;;;;;;6.15;4.43;;;27.90;34.10;;;;;;6156750;23;20186;-83
2021/07/26 11:57:57;;;;;;;5.65;5.05;;;28.00;32.40;;;;;;6158940;23;20178;-85
2021/07/26 12:00:31;;;;;;;5.57;4.68;;;28.00;33.80;;;;;;6157264;23;20194;-84
2021/07/26 12:02:58;;;;;;;5.93;4.80;;;28.00;33.90;;;;;;6157689;23;20238;-80
2021/07/26 12:05:29;;;;;;;6.00;5.40;;;27.30;35.90;;;;;;6142232;23;20208;-80
2021/07/26 12:07:57;;;;;;;5.70;5.10;;;26.90;37.50;;;;;;6153917;23;20496;-82
2021/07/26 12:10:32;;;;;;;7.22;4.90;;;26.70;37.40;;;;;;6158177;23;20178;-81
2021/07/26 12:13:08;;;;;;;7.50;4.90;;;26.70;37.30;;;;;;6155749;23;20159;-81
2021/07/26 12:15:36;;;;;;;6.80;4.43;;;26.70;37.30;;;;;;6156737;23;20198;-83
2021/07/26 12:18:05;;;;;;;5.50;4.60;;;27.00;37.50;;;;;;6161498;23;20275;-81
2021/07/26 12:20:33;;;;;;;6.20;5.13;;;27.30;35.80;;;;;;6158173;23;20207;-81
2021/07/26 12:23:11;;;;;;;6.18;4.57;;;27.10;36.80;;;;;;6157781;23;20271;-81
2021/07/26 12:25:43;;;;;;;8.07;5.15;;;26.70;37.30;;;;;;6159484;23;20202;-81
2021/07/26 12:28:10;;;;;;;5.63;4.82;;;26.70;37.40;;;;;;6161669;23;20163;-81
2021/07/26 12:30:40;;;;;;;6.05;5.45;;;26.80;36.80;;;;;;6157203;23;20209;-81
2021/07/26 12:33:07;;;;;;;6.03;4.60;;;26.60;37.30;;;;;;6157192;23;20175;-82
2021/07/26 12:35:34;;;;;;;5.18;4.53;;;26.90;37.40;;;;;;6155636;23;20670;-82
2021/07/26 12:38:09;;;;;;;5.82;5.10;;;27.00;36.20;;;;;;6157468;23;20207;-83
2021/07/26 12:40:37;;;;;;;6.13;4.82;;;26.90;35.30;;;;;;6156271;23;20522;-81
2021/07/26 12:43:06;;;;;;;5.15;4.60;;;26.90;37.40;;;;;;6157556;23;20179;-82
2021/07/26 12:45:34;;;;;;;6.13;4.90;;;27.10;37.50;;;;;;6156462;23;20211;-81
2021/07/26 12:48:15;;;;;;;5.90;5.10;;;26.90;37.40;;;;;;6158104;23;20226;-82
2021/07/26 12:50:44;;;;;;;6.13;4.90;;;26.70;37.30;;;;;;6154398;23;20203;-80
2021/07/26 12:53:11;;;;;;;6.05;4.72;;;26.90;37.40;;;;;;6155122;23;20457;-80
2021/07/26 12:55:39;;;;;;;8.20;4.78;;;27.00;35.00;;;;;;6154403;23;20250;-81
2021/07/26 12:58:07;;;;;;;6.07;4.63;;;27.00;37.50;;;;;;6154674;23;20193;-81